createdAt,value
2023-04-10T00:02:39.123Z,99060.19
2023-04-10T00:05:27.173Z,99066.69
2023-04-10T00:08:15.121Z,99060.88
2023-04-10T00:11:02.640Z,99061.06
2023-04-10T00:13:50.032Z,99061.34
2023-04-10T00:16:38.801Z,99058.28
2023-04-10T00:19:26.492Z,99054.28
2023-04-10T00:22:14.435Z,99052.84
2023-04-10T00:25:01.995Z,99050.41
2023-04-10T00:27:49.774Z,99047.16
2023-04-10T00:30:37.492Z,99037.88
2023-04-10T00:33:26.359Z,99032.91
2023-04-10T00:36:13.989Z,99034.00
2023-04-10T00:39:01.735Z,99034.34
2023-04-10T00:41:49.454Z,99026.72
2023-04-10T00:44:37.400Z,99029.47
2023-04-10T00:47:24.904Z,99024.59
2023-04-10T00:50:14.117Z,99024.09
2023-04-10T00:53:01.776Z,99036.72
2023-04-10T00:55:50.972Z,99036.91
2023-04-10T00:58:41.827Z,99040.63
2023-04-10T01:01:29.343Z,99043.38
2023-04-10T01:04:17.780Z,99051.56
2023-04-10T01:07:22.974Z,99037.94
2023-04-10T01:10:27.605Z,99039.88
2023-04-10T01:13:24.227Z,99035.84
2023-04-10T01:16:24.006Z,99034.34
2023-04-10T01:19:29.174Z,99026.75
2023-04-10T01:22:25.984Z,99027.78
2023-04-10T01:25:39.582Z,99024.59
2023-04-10T01:28:57.773Z,99025.91
2023-04-10T01:31:53.533Z,99035.72
2023-04-10T01:34:46.500Z,99044.56
2023-04-10T01:37:41.651Z,99044.75
2023-04-10T01:40:32.768Z,99044.81
2023-04-10T01:43:22.963Z,99046.22
2023-04-10T01:46:13.805Z,99033.47
2023-04-10T01:49:04.283Z,99037.13
2023-04-10T01:51:54.642Z,99042.44
2023-04-10T01:54:45.590Z,99042.63
2023-04-10T01:57:33.429Z,99036.78
2023-04-10T02:00:21.596Z,99037.06
2023-04-10T02:03:13.550Z,99035.47
2023-04-10T02:06:15.741Z,99037.53
2023-04-10T02:09:13.720Z,99043.97
2023-04-10T02:12:11.106Z,99046.03
2023-04-10T02:15:03.634Z,99044.47
2023-04-10T02:17:53.500Z,99039.34
2023-04-10T02:20:43.563Z,99046.44
2023-04-10T02:23:31.395Z,99041.47
2023-04-10T02:26:18.824Z,99046.03
2023-04-10T02:29:06.216Z,99046.19
2023-04-10T02:31:54.199Z,99041.25
2023-04-10T02:34:43.773Z,99043.28
2023-04-10T02:37:37.126Z,99046.91
2023-04-10T02:40:25.269Z,99052.34
2023-04-10T02:43:13.117Z,99049.03
2023-04-10T02:46:00.635Z,99048.25
2023-04-10T02:48:48.595Z,99043.22
2023-04-10T02:51:37.108Z,99042.53
2023-04-10T02:54:26.289Z,99045.31
2023-04-10T02:57:13.711Z,99040.31
2023-04-10T03:00:01.210Z,99050.03
2023-04-10T03:02:48.751Z,99044.06
2023-04-10T03:05:36.493Z,99043.38
2023-04-10T03:08:24.071Z,99037.56
2023-04-10T03:11:12.855Z,99038.63
2023-04-10T03:14:00.428Z,99038.72
2023-04-10T03:16:48.689Z,99038.78
2023-04-10T03:19:36.850Z,99051.31
2023-04-10T03:22:24.588Z,99041.78
2023-04-10T03:25:12.108Z,99040.38
2023-04-10T03:28:00.948Z,99038.00
2023-04-10T03:30:48.364Z,99042.50
2023-04-10T03:33:35.938Z,99042.69
2023-04-10T03:36:23.378Z,99035.91
2023-04-10T03:39:13.763Z,99040.31
2023-04-10T03:42:01.531Z,99027.44
2023-04-10T03:44:50.752Z,99026.59
2023-04-10T03:47:38.675Z,99023.97
2023-04-10T03:50:26.177Z,99024.41
2023-04-10T03:53:14.034Z,99024.41
2023-04-10T03:56:01.763Z,99022.69
2023-04-10T03:58:49.248Z,99021.00
2023-04-10T04:01:39.341Z,99022.03
2023-04-10T04:04:28.239Z,99035.28
2023-04-10T04:07:16.094Z,99028.56
2023-04-10T04:10:03.915Z,99037.44
2023-04-10T04:12:54.510Z,99034.25
2023-04-10T04:15:42.407Z,99030.00
2023-04-10T04:18:31.526Z,99029.25
2023-04-10T04:21:19.168Z,99029.41
2023-04-10T04:24:09.847Z,99033.09
2023-04-10T04:26:57.593Z,99037.56
2023-04-10T04:29:45.236Z,99036.78
2023-04-10T04:32:33.014Z,99044.88
2023-04-10T04:35:22.746Z,99046.81
2023-04-10T04:38:10.571Z,99038.28
2023-04-10T04:40:58.109Z,99047.88
2023-04-10T04:43:47.600Z,99048.91
2023-04-10T04:46:38.081Z,99055.00
2023-04-10T04:49:26.251Z,99048.97
2023-04-10T04:52:15.427Z,99055.22
2023-04-10T04:55:03.220Z,99059.75
2023-04-10T04:57:51.196Z,99066.78
2023-04-10T05:00:38.797Z,99059.16
2023-04-10T05:03:28.652Z,99064.38
2023-04-10T05:06:18.290Z,99070.38
2023-04-10T05:09:07.443Z,99078.22
2023-04-10T05:11:55.796Z,99081.31
2023-04-10T05:14:43.414Z,99080.47
2023-04-10T05:17:31.059Z,99079.78
2023-04-10T05:20:18.700Z,99079.94
2023-04-10T05:23:06.745Z,99073.84
2023-04-10T05:25:55.972Z,99070.38
2023-04-10T05:28:43.664Z,99064.97
2023-04-10T05:31:31.594Z,99062.38
2023-04-10T05:34:19.488Z,99067.44
2023-04-10T05:37:13.164Z,99063.75
2023-04-10T05:40:01.335Z,99066.22
2023-04-10T05:42:50.285Z,99073.06
2023-04-10T05:45:38.192Z,99076.84
2023-04-10T05:48:26.289Z,99074.81
2023-04-10T05:51:13.863Z,99080.38
2023-04-10T05:54:01.335Z,99086.81
2023-04-10T05:56:48.759Z,99092.06
2023-04-10T05:59:37.799Z,99096.72
2023-04-10T06:02:25.899Z,99102.16
2023-04-10T06:05:16.461Z,99106.28
2023-04-10T06:08:04.799Z,99104.81
2023-04-10T06:10:52.679Z,99106.41
2023-04-10T06:13:40.471Z,99102.84
2023-04-10T06:16:29.458Z,99106.25
2023-04-10T06:19:17.283Z,99093.06
2023-04-10T06:22:04.924Z,99106.78
2023-04-10T06:24:52.379Z,99102.44
2023-04-10T06:27:40.379Z,99103.53
2023-04-10T06:30:27.960Z,99100.63
2023-04-10T06:33:17.184Z,99101.38
2023-04-10T06:36:06.369Z,99108.72
2023-04-10T06:38:54.039Z,99103.44
2023-04-10T06:41:42.337Z,99094.75
2023-04-10T06:44:30.007Z,99092.56
2023-04-10T06:47:18.331Z,99100.13
2023-04-10T06:50:08.120Z,99094.69
2023-04-10T06:52:56.422Z,99102.09
2023-04-10T06:55:44.181Z,99092.03
2023-04-10T06:58:32.111Z,99093.13
2023-04-10T07:01:19.780Z,99095.66
2023-04-10T07:04:07.363Z,99098.94
2023-04-10T07:06:56.500Z,99090.63
2023-04-10T07:09:44.303Z,99093.16
2023-04-10T07:12:31.992Z,99090.09
2023-04-10T07:15:19.662Z,99079.22
2023-04-10T07:18:07.621Z,99078.94
2023-04-10T07:20:55.587Z,99075.44
2023-04-10T07:23:44.684Z,99071.19
2023-04-10T07:26:34.302Z,99059.97
2023-04-10T07:29:21.819Z,99054.78
2023-04-10T07:32:09.813Z,99040.75
2023-04-10T07:35:00.352Z,99042.22
2023-04-10T07:37:51.642Z,99036.13
2023-04-10T07:40:40.847Z,99030.13
2023-04-10T07:43:28.747Z,99027.66
2023-04-10T07:46:17.557Z,99021.41
2023-04-10T07:49:08.512Z,99014.09
2023-04-10T07:51:56.788Z,99006.25
2023-04-10T07:54:44.463Z,99009.59
2023-04-10T07:57:33.392Z,99001.16
2023-04-10T08:00:21.282Z,98999.72
2023-04-10T08:03:08.952Z,99001.81
2023-04-10T08:05:56.907Z,98995.59
2023-04-10T08:08:44.707Z,98992.75
2023-04-10T08:11:37.356Z,98987.75
2023-04-10T08:14:27.640Z,98983.56
2023-04-10T08:17:15.456Z,98981.47
2023-04-10T08:20:03.564Z,98984.13
2023-04-10T08:22:51.282Z,98980.94
2023-04-10T08:25:39.256Z,98983.00
2023-04-10T08:28:27.151Z,98985.19
2023-04-10T08:31:16.157Z,98976.38
2023-04-10T08:34:04.057Z,98970.16
2023-04-10T08:36:51.505Z,98964.09
2023-04-10T08:39:39.565Z,98965.59
2023-04-10T08:42:27.465Z,98957.72
2023-04-10T08:45:15.030Z,98959.56
2023-04-10T08:48:14.059Z,98955.22
2023-04-10T08:51:07.338Z,98953.69
2023-04-10T08:54:06.951Z,98950.72
2023-04-10T08:56:58.600Z,98957.06
2023-04-10T08:59:46.532Z,98954.53
2023-04-10T09:02:34.643Z,98952.78
2023-04-10T09:05:25.875Z,98950.38
2023-04-10T09:08:16.313Z,98932.00
2023-04-10T09:11:03.920Z,98934.22
2023-04-10T09:13:52.199Z,98926.28
2023-04-10T09:16:39.527Z,98931.72
2023-04-10T09:19:32.471Z,98917.19
2023-04-10T09:22:32.548Z,98920.22
2023-04-10T09:25:36.041Z,98913.44
2023-04-10T09:28:23.664Z,98904.72
2023-04-10T09:31:30.991Z,98905.38
2023-04-10T09:34:21.661Z,98897.69
2023-04-10T09:37:10.950Z,98890.28
2023-04-10T09:40:00.682Z,98894.19
2023-04-10T09:42:48.585Z,98895.25
2023-04-10T09:45:49.957Z,98880.59
2023-04-10T09:48:37.959Z,98876.94
2023-04-10T09:51:31.742Z,98866.31
2023-04-10T09:54:19.347Z,98867.44
2023-04-10T09:57:09.043Z,98857.06
2023-04-10T09:59:58.705Z,98854.75
2023-04-10T10:02:46.788Z,98839.31
2023-04-10T10:05:37.184Z,98839.88
2023-04-10T10:08:25.312Z,98832.28
2023-04-10T10:11:19.477Z,98830.72
2023-04-10T10:14:16.146Z,98824.31
2023-04-10T10:17:12.900Z,98820.59
2023-04-10T10:20:05.728Z,98808.47
2023-04-10T10:22:54.595Z,98804.88
2023-04-10T10:25:44.323Z,98813.75
2023-04-10T10:28:34.682Z,98801.28
2023-04-10T10:31:33.188Z,98796.53
2023-04-10T10:34:24.738Z,98786.81
2023-04-10T10:37:16.233Z,98785.22
2023-04-10T10:40:14.289Z,98785.84
2023-04-10T10:43:14.518Z,98778.53
2023-04-10T10:46:07.101Z,98788.25
2023-04-10T10:49:00.755Z,98777.84
2023-04-10T10:51:51.168Z,98767.69
2023-04-10T10:54:47.212Z,98760.03
2023-04-10T10:57:49.213Z,98753.88
2023-04-10T11:01:10.763Z,98754.56
2023-04-10T11:04:01.336Z,98745.13
2023-04-10T11:06:53.143Z,98738.72
2023-04-10T11:09:49.453Z,98734.22
2023-04-10T11:13:21.035Z,98732.44
2023-04-10T11:16:11.819Z,98733.13
2023-04-10T11:19:14.810Z,98724.28
2023-04-10T11:22:10.763Z,98724.13
2023-04-10T11:25:02.467Z,98722.91
2023-04-10T11:27:51.843Z,98715.75
2023-04-10T11:30:41.051Z,98708.38
2023-04-10T11:33:28.692Z,98717.06
2023-04-10T11:36:19.869Z,98704.22
2023-04-10T11:39:10.049Z,98704.25
2023-04-10T11:41:57.808Z,98690.34
2023-04-10T11:44:47.107Z,98703.03
2023-04-10T11:47:38.272Z,98685.69
2023-04-10T11:50:32.283Z,98678.47
2023-04-10T11:53:22.863Z,98682.25
2023-04-10T11:56:22.865Z,98678.50
2023-04-10T11:59:13.365Z,98677.66
2023-04-10T12:02:09.910Z,98669.41
2023-04-10T12:04:59.983Z,98674.97
2023-04-10T12:07:49.496Z,98667.59
2023-04-10T12:10:48.210Z,98668.75
2023-04-10T12:13:36.250Z,98668.50
2023-04-10T12:16:27.349Z,98675.38
2023-04-10T12:19:18.112Z,98679.25
2023-04-10T12:22:06.666Z,98665.25
2023-04-10T12:24:55.186Z,98651.06
2023-04-10T12:27:51.592Z,98655.00
2023-04-10T12:30:39.404Z,98650.19
2023-04-10T12:33:27.208Z,98648.53
2023-04-10T12:36:27.059Z,98646.47
2023-04-10T12:39:25.598Z,98639.47
2023-04-10T12:42:15.480Z,98632.75
2023-04-10T12:45:04.957Z,98624.69
2023-04-10T12:47:53.739Z,98624.28
2023-04-10T12:50:51.223Z,98614.31
2023-04-10T12:53:45.295Z,98615.94
2023-04-10T12:56:43.366Z,98598.50
2023-04-10T12:59:31.639Z,98606.16
2023-04-10T13:02:21.419Z,98601.59
2023-04-10T13:05:11.298Z,98602.91
2023-04-10T13:07:58.881Z,98605.19
2023-04-10T13:10:46.960Z,98597.91
2023-04-10T13:13:35.867Z,98600.81
2023-04-10T13:16:23.621Z,98584.22
2023-04-10T13:19:13.014Z,98583.97
2023-04-10T13:22:01.386Z,98578.06
2023-04-10T13:24:49.171Z,98567.09
2023-04-10T13:27:36.681Z,98565.81
2023-04-10T13:30:24.059Z,98563.84
2023-04-10T13:33:11.763Z,98556.41
2023-04-10T13:36:00.897Z,98557.13
2023-04-10T13:38:48.460Z,98549.53
2023-04-10T13:41:38.548Z,98550.38
2023-04-10T13:44:26.428Z,98545.78
2023-04-10T13:47:14.297Z,98536.28
2023-04-10T13:50:01.989Z,98529.00
2023-04-10T13:52:53.042Z,98513.97
2023-04-10T13:55:43.765Z,98513.84
2023-04-10T13:58:34.526Z,98509.50
2023-04-10T14:01:23.592Z,98518.22
2023-04-10T14:04:11.327Z,98498.91
2023-04-10T14:07:00.523Z,98498.59
2023-04-10T14:09:49.292Z,98497.69
2023-04-10T14:12:37.978Z,98500.81
2023-04-10T14:15:25.548Z,98495.53
2023-04-10T14:18:14.859Z,98483.13
2023-04-10T14:21:02.743Z,98482.06
2023-04-10T14:23:50.146Z,98482.41
2023-04-10T14:26:39.010Z,98467.44
2023-04-10T14:29:37.460Z,98470.28
2023-04-10T14:32:26.844Z,98474.22
2023-04-10T14:35:14.848Z,98460.66
2023-04-10T14:38:02.286Z,98464.19
2023-04-10T14:40:53.935Z,98462.28
2023-04-10T14:43:45.938Z,98459.13
2023-04-10T14:46:33.565Z,98461.06
2023-04-10T14:49:21.010Z,98453.47
2023-04-10T14:52:08.580Z,98460.50
2023-04-10T14:54:56.150Z,98447.72
2023-04-10T14:57:43.775Z,98441.97
2023-04-10T15:00:33.529Z,98443.13
2023-04-10T15:03:24.502Z,98444.75
2023-04-10T15:06:12.981Z,98445.56
2023-04-10T15:09:01.128Z,98444.75
2023-04-10T15:11:48.773Z,98440.41
2023-04-10T15:14:36.325Z,98434.81
2023-04-10T15:17:25.267Z,98424.03
2023-04-10T15:20:14.070Z,98432.63
2023-04-10T15:23:02.604Z,98428.06
2023-04-10T15:25:50.468Z,98420.00
2023-04-10T15:28:38.145Z,98413.97
2023-04-10T15:31:26.488Z,98412.84
2023-04-10T15:34:15.500Z,98399.41
2023-04-10T15:37:03.378Z,98393.44
2023-04-10T15:39:52.202Z,98393.34
2023-04-10T15:42:40.001Z,98387.19
2023-04-10T15:45:28.054Z,98388.59
2023-04-10T15:48:15.914Z,98390.47
2023-04-10T15:51:07.829Z,98392.28
2023-04-10T15:53:56.053Z,98393.91
2023-04-10T15:56:43.941Z,98382.59
2023-04-10T15:59:31.829Z,98383.09
2023-04-10T16:02:19.688Z,98373.09
2023-04-10T16:05:09.298Z,98388.44
2023-04-10T16:07:58.715Z,98384.81
2023-04-10T16:10:47.023Z,98387.91
2023-04-10T16:13:34.579Z,98384.50
2023-04-10T16:16:22.635Z,98385.34
2023-04-10T16:19:10.930Z,98382.75
2023-04-10T16:21:58.657Z,98380.59
2023-04-10T16:24:47.786Z,98370.47
2023-04-10T16:27:35.592Z,98367.59
2023-04-10T16:30:23.725Z,98367.94
2023-04-10T16:33:11.812Z,98364.47
2023-04-10T16:35:59.789Z,98360.31
2023-04-10T16:38:49.716Z,98360.84
2023-04-10T16:41:40.361Z,98349.91
2023-04-10T16:44:28.491Z,98348.59
2023-04-10T16:47:16.332Z,98342.34
2023-04-10T16:50:05.501Z,98337.13
2023-04-10T16:52:53.052Z,98330.03
2023-04-10T16:55:40.555Z,98328.03
2023-04-10T16:58:29.368Z,98323.06
2023-04-10T17:01:19.459Z,98321.72
2023-04-10T17:04:07.977Z,98329.41
2023-04-10T17:06:55.685Z,98316.28
2023-04-10T17:09:43.271Z,98323.00
2023-04-10T17:12:30.967Z,98316.47
2023-04-10T17:15:20.382Z,98315.63
2023-04-10T17:18:08.104Z,98303.88
2023-04-10T17:20:56.072Z,98307.69
2023-04-10T17:23:44.066Z,98299.03
2023-04-10T17:26:32.042Z,98294.50
2023-04-10T17:29:19.897Z,98293.16
2023-04-10T17:32:10.178Z,98284.38
2023-04-10T17:34:57.948Z,98280.06
2023-04-10T17:37:50.904Z,98277.97
2023-04-10T17:40:40.912Z,98281.88
2023-04-10T17:43:28.268Z,98278.59
2023-04-10T17:46:16.379Z,98272.44
2023-04-10T17:49:05.512Z,98288.81
2023-04-10T17:51:53.463Z,98285.97
2023-04-10T17:54:41.227Z,98287.97
2023-04-10T17:57:29.184Z,98283.41
2023-04-10T18:00:20.540Z,98279.91
2023-04-10T18:03:08.792Z,98286.06
2023-04-10T18:05:57.543Z,98277.84
2023-04-10T18:08:45.075Z,98285.22
2023-04-10T18:11:32.554Z,98270.56
2023-04-10T18:14:21.640Z,98261.19
2023-04-10T18:17:09.268Z,98266.53
2023-04-10T18:19:57.555Z,98257.09
2023-04-10T18:22:49.168Z,98253.63
2023-04-10T18:25:36.742Z,98251.97
2023-04-10T18:28:24.657Z,98246.00
2023-04-10T18:31:14.832Z,98237.84
2023-04-10T18:34:07.990Z,98240.38
2023-04-10T18:36:56.767Z,98245.34
2023-04-10T18:39:45.865Z,98251.38
2023-04-10T18:42:33.554Z,98248.69
2023-04-10T18:45:21.509Z,98234.88
2023-04-10T18:48:09.184Z,98225.75
2023-04-10T18:50:57.119Z,98230.09
2023-04-10T18:53:44.823Z,98234.25
2023-04-10T18:56:36.692Z,98233.91
2023-04-10T18:59:28.369Z,98228.78
2023-04-10T19:02:21.641Z,98227.94
2023-04-10T19:05:17.399Z,98223.06
2023-04-10T19:08:06.554Z,98223.44
2023-04-10T19:10:53.959Z,98234.91
2023-04-10T19:13:42.988Z,98219.94
2023-04-10T19:16:30.941Z,98218.44
2023-04-10T19:19:20.842Z,98208.78
2023-04-10T19:22:08.568Z,98214.44
2023-04-10T19:25:01.428Z,98218.41
2023-04-10T19:27:49.582Z,98216.78
2023-04-10T19:30:38.964Z,98215.44
2023-04-10T19:33:27.318Z,98221.28
2023-04-10T19:36:19.334Z,98224.59
2023-04-10T19:39:07.568Z,98221.41
2023-04-10T19:41:56.326Z,98229.06
2023-04-10T19:44:47.235Z,98219.09
2023-04-10T19:47:36.211Z,98211.53
2023-04-10T19:50:24.349Z,98212.19
2023-04-10T19:53:12.886Z,98202.03
2023-04-10T19:56:00.811Z,98192.88
2023-04-10T19:58:48.580Z,98199.22
2023-04-10T20:01:36.462Z,98207.50
2023-04-10T20:04:25.452Z,98215.13
2023-04-10T20:07:16.329Z,98208.34
2023-04-10T20:10:05.357Z,98197.03
2023-04-10T20:12:52.840Z,98187.72
2023-04-10T20:15:40.603Z,98171.75
2023-04-10T20:18:28.409Z,98168.22
2023-04-10T20:21:17.712Z,98198.66
2023-04-10T20:24:05.412Z,98204.13
2023-04-10T20:26:52.772Z,98201.94
2023-04-10T20:29:40.653Z,98195.81
2023-04-10T20:32:28.586Z,98209.06
2023-04-10T20:35:19.097Z,98195.09
2023-04-10T20:38:08.405Z,98176.16
2023-04-10T20:40:56.067Z,98170.47
2023-04-10T20:43:43.566Z,98175.63
2023-04-10T20:46:31.176Z,98156.69
2023-04-10T20:49:18.915Z,98155.66
2023-04-10T20:52:07.319Z,98164.28
2023-04-10T20:54:56.354Z,98154.94
2023-04-10T20:57:43.781Z,98150.66
2023-04-10T21:00:31.501Z,98153.63
2023-04-10T21:03:19.531Z,98143.31
2023-04-10T21:06:08.703Z,98132.00
2023-04-10T21:08:56.454Z,98126.38
2023-04-10T21:11:45.433Z,98122.72
2023-04-10T21:14:33.429Z,98125.84
2023-04-10T21:17:21.234Z,98128.19
2023-04-10T21:20:09.579Z,98136.47
2023-04-10T21:22:57.089Z,98129.66
2023-04-10T21:25:52.866Z,98124.03
2023-04-10T21:28:42.010Z,98115.69
2023-04-10T21:31:29.676Z,98109.03
2023-04-10T21:34:17.532Z,98104.03
2023-04-10T21:37:05.136Z,98090.22
2023-04-10T21:39:52.670Z,98087.25
2023-04-10T21:42:40.653Z,98079.13
2023-04-10T21:45:29.806Z,98082.78
2023-04-10T21:48:17.585Z,98086.59
2023-04-10T21:51:07.598Z,98083.41
2023-04-10T21:53:55.441Z,98083.41
2023-04-10T21:56:43.223Z,98084.41
2023-04-10T21:59:31.675Z,98090.03
2023-04-10T22:02:20.387Z,98080.72
2023-04-10T22:05:08.694Z,98068.44
2023-04-10T22:07:56.692Z,98062.44
2023-04-10T22:10:45.456Z,98055.78
2023-04-10T22:13:33.027Z,98067.72
2023-04-10T22:16:21.623Z,98060.44
2023-04-10T22:19:11.720Z,98060.75
2023-04-10T22:21:59.338Z,98055.75
2023-04-10T22:24:46.638Z,98059.06
2023-04-10T22:27:34.464Z,98051.25
2023-04-10T22:30:22.107Z,98047.63
2023-04-10T22:33:10.125Z,98049.78
2023-04-10T22:35:59.342Z,98038.47
2023-04-10T22:38:46.902Z,98038.31
2023-04-10T22:41:34.800Z,98033.47
2023-04-10T22:44:22.372Z,98026.50
2023-04-10T22:47:09.871Z,98010.72
2023-04-10T22:49:58.101Z,98012.56
2023-04-10T22:52:47.343Z,98010.03
2023-04-10T22:55:35.354Z,98012.00
2023-04-10T22:58:22.714Z,98005.03
2023-04-10T23:01:11.980Z,98000.72
2023-04-10T23:04:00.356Z,98006.19
2023-04-10T23:06:48.496Z,97997.56
2023-04-10T23:09:37.618Z,97999.53
2023-04-10T23:12:26.329Z,98001.19
2023-04-10T23:15:14.255Z,97988.75
2023-04-10T23:18:04.678Z,97986.94
2023-04-10T23:20:53.960Z,97982.59
2023-04-10T23:23:43.386Z,97984.28
2023-04-10T23:26:32.904Z,97968.84
2023-04-10T23:29:20.360Z,97960.72
2023-04-10T23:32:08.226Z,97940.47
2023-04-10T23:34:56.200Z,97919.22
2023-04-10T23:37:43.519Z,97895.50
2023-04-10T23:40:31.051Z,97874.59
2023-04-10T23:43:20.200Z,97869.59
2023-04-10T23:46:11.504Z,97891.34
2023-04-10T23:48:59.551Z,97900.28
2023-04-10T23:51:46.883Z,97890.34
2023-04-10T23:54:34.156Z,97889.34
2023-04-10T23:57:21.633Z,97896.66
